createdAt,value
2018-09-11T00:00:32.801Z,69.90
2018-09-11T00:02:59.495Z,69.90
2018-09-11T00:05:26.789Z,70.00
2018-09-11T00:07:53.458Z,70.00
2018-09-11T00:10:20.193Z,70.00
2018-09-11T00:12:46.990Z,70.00
2018-09-11T00:15:13.721Z,70.00
2018-09-11T00:17:40.367Z,70.00
2018-09-11T00:20:07.061Z,70.10
2018-09-11T00:22:33.837Z,70.50
2018-09-11T00:25:00.509Z,70.10
2018-09-11T00:27:27.205Z,70.10
2018-09-11T00:29:54.014Z,70.10
2018-09-11T00:32:20.651Z,70.10
2018-09-11T00:34:47.396Z,70.10
2018-09-11T00:37:14.733Z,70.20
2018-09-11T00:39:42.274Z,70.10
2018-09-11T00:42:08.998Z,70.10
2018-09-11T00:44:35.796Z,70.10
2018-09-11T00:47:02.780Z,70.20
2018-09-11T00:49:29.686Z,70.20
2018-09-11T00:51:56.438Z,70.20
2018-09-11T00:54:23.764Z,70.20
2018-09-11T00:56:50.420Z,70.20
2018-09-11T00:59:17.080Z,70.30
2018-09-11T01:01:43.937Z,70.20
2018-09-11T01:04:10.639Z,70.20
2018-09-11T01:06:37.318Z,70.20
2018-09-11T01:09:04.821Z,70.30
2018-09-11T01:11:31.500Z,70.30
2018-09-11T01:13:58.098Z,70.30
2018-09-11T01:16:24.740Z,70.20
2018-09-11T01:18:51.493Z,70.30
2018-09-11T01:21:18.201Z,71.10
2018-09-11T01:23:45.068Z,70.30
2018-09-11T01:26:13.351Z,70.30
2018-09-11T01:28:40.038Z,70.20
2018-09-11T01:31:07.415Z,70.40
2018-09-11T01:33:34.175Z,70.30
2018-09-11T01:36:01.387Z,70.30
2018-09-11T01:38:28.193Z,70.40
2018-09-11T01:40:54.939Z,70.40
2018-09-11T01:43:21.608Z,70.40
2018-09-11T01:45:48.266Z,70.50
2018-09-11T01:48:14.964Z,70.40
2018-09-11T01:50:41.780Z,70.30
2018-09-11T01:53:08.492Z,70.40
2018-09-11T01:55:35.368Z,70.50
2018-09-11T01:58:02.128Z,70.50
2018-09-11T02:00:29.456Z,70.50
2018-09-11T02:02:56.735Z,70.50
2018-09-11T02:05:23.578Z,70.50
2018-09-11T02:07:50.634Z,70.50
2018-09-11T02:10:17.309Z,70.50
2018-09-11T02:12:43.948Z,70.50
2018-09-11T02:15:11.285Z,70.50
2018-09-11T02:17:38.277Z,70.50
2018-09-11T02:20:05.626Z,70.60
2018-09-11T02:22:32.340Z,70.40
2018-09-11T02:24:59.109Z,70.60
2018-09-11T02:27:25.781Z,70.60
2018-09-11T02:29:53.075Z,70.60
2018-09-11T02:32:19.874Z,70.80
2018-09-11T02:34:46.742Z,70.50
2018-09-11T02:37:13.692Z,70.60
2018-09-11T02:39:40.339Z,70.60
2018-09-11T02:42:07.155Z,71.00
2018-09-11T02:44:33.940Z,70.60
2018-09-11T02:47:00.699Z,70.60
2018-09-11T02:49:27.409Z,70.60
2018-09-11T02:51:54.163Z,70.60
2018-09-11T02:54:20.866Z,70.70
2018-09-11T02:56:47.566Z,70.70
2018-09-11T02:59:15.112Z,70.70
2018-09-11T03:01:41.836Z,70.70
2018-09-11T03:04:08.621Z,70.70
2018-09-11T03:06:35.302Z,70.70
2018-09-11T03:09:02.063Z,70.70
2018-09-11T03:11:28.752Z,70.70
2018-09-11T03:13:55.516Z,70.80
2018-09-11T03:16:22.487Z,70.70
2018-09-11T03:18:49.215Z,70.70
2018-09-11T03:21:16.174Z,70.70
2018-09-11T03:23:43.633Z,70.70
2018-09-11T03:26:10.320Z,70.80
2018-09-11T03:28:37.598Z,70.80
2018-09-11T03:31:04.290Z,70.80
2018-09-11T03:33:30.928Z,71.00
2018-09-11T03:35:57.704Z,70.80
2018-09-11T03:38:24.399Z,70.80
2018-09-11T03:40:51.178Z,70.90
2018-09-11T03:43:17.980Z,70.80
2018-09-11T03:45:48.412Z,70.90
2018-09-11T03:48:15.814Z,70.80
2018-09-11T03:50:42.502Z,70.80
2018-09-11T03:53:09.344Z,70.80
2018-09-11T03:55:36.070Z,70.80
2018-09-11T03:58:03.449Z,70.90
2018-09-11T04:00:30.353Z,71.10
2018-09-11T04:02:57.055Z,70.90
2018-09-11T04:05:24.053Z,70.90
2018-09-11T04:07:50.778Z,70.90
2018-09-11T04:10:18.449Z,70.90
2018-09-11T04:12:45.137Z,70.90
2018-09-11T04:15:11.851Z,71.00
2018-09-11T04:17:42.073Z,70.80
2018-09-11T04:20:09.659Z,71.00
2018-09-11T04:22:37.646Z,71.30
2018-09-11T04:25:04.468Z,71.00
2018-09-11T04:27:31.257Z,70.90
2018-09-11T04:29:58.051Z,71.00
2018-09-11T04:32:24.723Z,70.90
2018-09-11T04:34:51.641Z,71.00
2018-09-11T04:37:18.415Z,71.00
2018-09-11T04:39:45.173Z,71.00
2018-09-11T04:42:11.893Z,71.10
2018-09-11T04:44:38.561Z,71.10
2018-09-11T04:47:05.318Z,71.10
2018-09-11T04:49:32.301Z,71.10
2018-09-11T04:52:00.017Z,71.10
2018-09-11T04:54:27.139Z,71.10
2018-09-11T04:56:53.872Z,71.10
2018-09-11T04:59:20.635Z,71.20
2018-09-11T05:01:47.704Z,71.10
2018-09-11T05:04:14.700Z,71.10
2018-09-11T05:06:42.825Z,71.10
2018-09-11T05:09:10.460Z,71.10
2018-09-11T05:11:37.196Z,71.10
2018-09-11T05:14:09.998Z,71.10
2018-09-11T05:16:37.747Z,71.20
2018-09-11T05:19:04.429Z,71.10
2018-09-11T05:21:31.186Z,71.10
2018-09-11T05:23:58.109Z,71.20
2018-09-11T05:26:24.924Z,71.20
2018-09-11T05:28:51.667Z,71.30
2018-09-11T05:31:18.447Z,71.30
2018-09-11T05:33:45.152Z,71.10
2018-09-11T05:38:33.586Z,71.00
2018-09-11T05:41:00.296Z,71.20
2018-09-11T05:43:29.932Z,71.30
2018-09-11T05:45:56.628Z,71.40
2018-09-11T05:48:23.296Z,71.40
2018-09-11T05:50:50.147Z,71.20
2018-09-11T05:53:16.885Z,71.40
2018-09-11T05:55:43.784Z,71.30
2018-09-11T05:58:10.596Z,71.40
2018-09-11T06:00:37.319Z,71.40
2018-09-11T06:03:04.220Z,71.40
2018-09-11T06:05:31.048Z,71.40
2018-09-11T06:07:57.825Z,71.40
2018-09-11T06:10:24.514Z,71.30
2018-09-11T06:12:51.243Z,71.40
2018-09-11T06:15:18.063Z,71.40
2018-09-11T06:17:44.798Z,71.50
2018-09-11T06:20:11.605Z,71.40
2018-09-11T06:22:38.315Z,71.40
2018-09-11T06:25:05.005Z,71.40
2018-09-11T06:27:31.749Z,71.50
2018-09-11T06:29:58.692Z,71.40
2018-09-11T06:32:25.419Z,71.30
2018-09-11T06:34:53.089Z,71.40
2018-09-11T06:37:19.805Z,71.50
2018-09-11T06:39:46.814Z,71.50
2018-09-11T06:42:13.630Z,71.50
2018-09-11T06:44:40.421Z,71.50
2018-09-11T06:47:07.255Z,71.50
2018-09-11T06:49:33.990Z,71.60
2018-09-11T06:52:00.724Z,71.60
2018-09-11T06:54:27.539Z,71.60
2018-09-11T06:56:54.298Z,72.00
2018-09-11T06:59:21.102Z,71.40
2018-09-11T07:01:47.833Z,71.60
2018-09-11T07:04:14.702Z,71.60
2018-09-11T07:06:41.490Z,71.60
2018-09-11T07:09:09.047Z,71.60
2018-09-11T07:11:35.737Z,71.50
2018-09-11T07:14:02.470Z,71.60
2018-09-11T07:16:29.278Z,71.70
2018-09-11T07:18:56.005Z,71.60
2018-09-11T07:21:23.052Z,71.70
2018-09-11T07:23:49.916Z,71.60
2018-09-11T07:26:16.697Z,71.60
2018-09-11T07:28:43.396Z,71.60
2018-09-11T07:31:10.188Z,71.60
2018-09-11T07:33:36.926Z,72.40
2018-09-11T07:36:03.635Z,71.60
2018-09-11T07:38:30.641Z,71.60
2018-09-11T07:40:57.437Z,71.70
2018-09-11T07:43:24.185Z,72.50
2018-09-11T07:45:50.984Z,71.80
2018-09-11T07:48:17.878Z,71.80
2018-09-11T07:50:44.547Z,71.80
2018-09-11T07:53:11.273Z,71.70
2018-09-11T07:55:38.082Z,71.80
2018-09-11T07:58:04.892Z,71.80
2018-09-11T08:00:31.720Z,71.90
2018-09-11T08:02:58.467Z,71.90
2018-09-11T08:05:25.296Z,71.90
2018-09-11T08:07:52.214Z,71.60
2018-09-11T08:10:19.030Z,71.80
2018-09-11T08:12:45.950Z,71.90
2018-09-11T08:15:12.620Z,71.90
2018-09-11T08:17:39.305Z,71.90
2018-09-11T08:20:06.088Z,71.80
2018-09-11T08:22:32.863Z,71.80
2018-09-11T08:24:59.671Z,72.00
2018-09-11T08:27:26.398Z,72.00
2018-09-11T08:29:53.132Z,72.00
2018-09-11T08:32:20.136Z,72.00
2018-09-11T08:34:47.023Z,72.00
2018-09-11T08:37:13.936Z,72.30
2018-09-11T08:39:40.654Z,71.90
2018-09-11T08:42:07.412Z,72.00
2018-09-11T08:44:34.088Z,72.00
2018-09-11T08:47:00.793Z,72.00
2018-09-11T08:49:27.520Z,71.90
2018-09-11T08:51:54.285Z,72.10
2018-09-11T08:54:21.332Z,72.10
2018-09-11T08:56:48.052Z,72.00
2018-09-11T08:59:14.941Z,72.10
2018-09-11T09:01:41.694Z,72.10
2018-09-11T09:04:08.474Z,72.00
2018-09-11T09:06:35.365Z,72.00
2018-09-11T09:09:02.148Z,71.90
2018-09-11T09:11:28.837Z,72.10
2018-09-11T09:13:55.678Z,72.10
2018-09-11T09:16:22.495Z,72.10
2018-09-11T09:18:49.275Z,72.00
2018-09-11T09:21:16.048Z,72.10
2018-09-11T09:23:43.165Z,72.00
2018-09-11T09:26:09.923Z,72.10
2018-09-11T09:28:36.641Z,72.00
2018-09-11T09:31:03.572Z,72.10
2018-09-11T09:33:30.403Z,72.00
2018-09-11T09:35:57.151Z,72.00
2018-09-11T09:38:23.907Z,72.00
2018-09-11T09:40:50.651Z,72.00
2018-09-11T09:43:17.441Z,72.10
2018-09-11T09:45:44.187Z,72.10
2018-09-11T09:48:11.089Z,72.10
2018-09-11T09:50:37.998Z,72.10
2018-09-11T09:53:04.769Z,72.10
2018-09-11T09:55:31.583Z,72.10
2018-09-11T09:57:58.456Z,72.20
2018-09-11T10:00:30.733Z,72.20
2018-09-11T10:02:57.588Z,72.20
2018-09-11T10:05:24.342Z,72.10
2018-09-11T10:07:51.112Z,72.10
2018-09-11T10:10:17.886Z,72.00
2018-09-11T10:12:44.648Z,72.00
2018-09-11T10:15:11.371Z,71.90
2018-09-11T10:17:38.224Z,72.50
2018-09-11T10:20:05.517Z,71.90
2018-09-11T10:22:32.292Z,71.80
2018-09-11T10:24:59.079Z,71.70
2018-09-11T10:27:25.948Z,71.70
2018-09-11T10:29:52.740Z,71.80
2018-09-11T10:32:20.081Z,71.70
2018-09-11T10:34:46.883Z,71.50
2018-09-11T10:37:13.679Z,71.40
2018-09-11T10:39:40.581Z,71.40
2018-09-11T10:42:07.343Z,71.40
2018-09-11T10:44:34.107Z,71.20
2018-09-11T10:47:00.841Z,71.30
2018-09-11T10:49:27.662Z,71.10
2018-09-11T10:51:54.376Z,71.10
2018-09-11T10:54:21.225Z,71.00
2018-09-11T10:56:47.984Z,71.00
2018-09-11T10:59:14.832Z,71.00
2018-09-11T11:01:41.549Z,70.80
2018-09-11T11:04:08.393Z,70.70
2018-09-11T11:06:35.167Z,70.60
2018-09-11T11:09:02.664Z,70.50
2018-09-11T11:11:32.293Z,70.50
2018-09-11T11:13:59.082Z,70.40
2018-09-11T11:16:25.809Z,70.30
2018-09-11T11:18:52.521Z,70.10
2018-09-11T11:21:19.356Z,70.10
2018-09-11T11:23:47.176Z,69.80
2018-09-11T11:26:13.969Z,69.90
2018-09-11T11:28:40.887Z,69.70
2018-09-11T11:31:07.623Z,69.70
2018-09-11T11:33:34.569Z,69.60
2018-09-11T11:36:01.465Z,69.40
2018-09-11T11:38:28.293Z,69.40
2018-09-11T11:40:55.067Z,69.30
2018-09-11T11:43:21.827Z,69.20
2018-09-11T11:45:48.861Z,69.10
2018-09-11T11:48:16.421Z,69.10
2018-09-11T11:50:43.184Z,69.00
2018-09-11T11:53:10.135Z,69.00
2018-09-11T11:55:36.866Z,68.80
2018-09-11T11:58:03.899Z,68.80
2018-09-11T12:00:30.617Z,68.70
2018-09-11T12:02:57.331Z,68.40
2018-09-11T12:05:24.040Z,68.50
2018-09-11T12:07:50.777Z,68.40
2018-09-11T12:10:17.540Z,68.30
2018-09-11T12:12:44.463Z,68.30
2018-09-11T12:15:11.272Z,68.10
2018-09-11T12:17:37.993Z,68.10
2018-09-11T12:20:04.724Z,68.00
2018-09-11T12:22:31.528Z,67.80
2018-09-11T12:24:58.250Z,67.80
2018-09-11T12:27:25.127Z,67.70
2018-09-11T12:29:51.829Z,67.60
2018-09-11T12:32:18.650Z,67.60
2018-09-11T12:34:45.440Z,67.50
2018-09-11T12:37:12.205Z,67.50
2018-09-11T12:39:38.938Z,67.40
2018-09-11T12:42:05.820Z,67.30
2018-09-11T12:44:32.590Z,67.30
2018-09-11T12:46:59.515Z,67.00
2018-09-11T12:49:26.112Z,67.10
2018-09-11T12:51:52.828Z,67.10
2018-09-11T12:54:19.562Z,66.90
2018-09-11T12:56:46.397Z,66.80
2018-09-11T12:59:13.196Z,66.80
2018-09-11T13:01:39.954Z,66.70
2018-09-11T13:04:06.751Z,66.50
2018-09-11T13:06:33.496Z,66.50
2018-09-11T13:09:00.261Z,66.40
2018-09-11T13:11:27.046Z,66.40
2018-09-11T13:13:53.806Z,66.30
2018-09-11T13:16:20.558Z,66.30
2018-09-11T13:18:47.879Z,66.20
2018-09-11T13:21:14.792Z,66.10
2018-09-11T13:23:41.637Z,66.00
2018-09-11T13:26:08.344Z,66.10
2018-09-11T13:28:35.059Z,65.90
2018-09-11T13:31:02.062Z,65.80
2018-09-11T13:33:28.837Z,65.80
2018-09-11T13:35:55.573Z,65.70
2018-09-11T13:38:22.327Z,65.60
2018-09-11T13:40:49.081Z,65.40
2018-09-11T13:43:15.846Z,65.40
2018-09-11T13:45:42.663Z,65.30
2018-09-11T13:48:09.578Z,65.30
2018-09-11T13:50:36.363Z,65.20
2018-09-11T13:53:03.160Z,65.20
2018-09-11T13:55:30.061Z,65.10
2018-09-11T13:57:56.783Z,65.00
2018-09-11T14:00:23.593Z,65.00
2018-09-11T14:02:50.304Z,65.50
2018-09-11T14:05:17.042Z,64.90
2018-09-11T14:07:43.753Z,64.80
2018-09-11T14:10:10.534Z,64.70
2018-09-11T14:12:37.337Z,64.60
2018-09-11T14:15:04.087Z,64.60
2018-09-11T14:17:30.980Z,64.60
2018-09-11T14:19:57.735Z,64.70
2018-09-11T14:22:24.527Z,64.60
2018-09-11T14:24:51.383Z,64.60
2018-09-11T14:27:18.263Z,64.70
2018-09-11T14:29:44.980Z,64.60
2018-09-11T14:32:11.793Z,64.50
2018-09-11T14:34:38.532Z,64.60
2018-09-11T14:37:05.364Z,64.60
2018-09-11T14:39:32.197Z,64.60
2018-09-11T14:41:58.949Z,64.60
2018-09-11T14:44:25.821Z,64.60
2018-09-11T14:46:52.547Z,65.40
2018-09-11T14:49:20.339Z,64.40
2018-09-11T14:51:47.624Z,64.60
2018-09-11T14:54:14.388Z,64.50
2018-09-11T14:56:41.120Z,64.60
2018-09-11T14:59:07.860Z,64.60
2018-09-11T15:01:34.747Z,64.60
2018-09-11T15:04:01.692Z,64.60
2018-09-11T15:06:28.476Z,64.60
2018-09-11T15:08:55.312Z,64.40
2018-09-11T15:11:22.302Z,64.70
2018-09-11T15:13:49.070Z,64.70
2018-09-11T15:16:15.928Z,64.70
2018-09-11T15:18:42.690Z,64.70
2018-09-11T15:21:09.560Z,64.70
2018-09-11T15:23:36.280Z,64.70
2018-09-11T15:26:03.200Z,64.70
2018-09-11T15:28:30.039Z,64.70
2018-09-11T15:30:56.790Z,64.10
2018-09-11T15:33:23.581Z,64.70
2018-09-11T15:35:50.304Z,64.80
2018-09-11T15:38:17.149Z,64.80
2018-09-11T15:40:43.823Z,64.60
2018-09-11T15:43:10.745Z,64.70
2018-09-11T15:45:37.695Z,64.80
2018-09-11T15:48:04.469Z,64.70
2018-09-11T15:50:31.208Z,64.70
2018-09-11T15:52:58.037Z,64.90
2018-09-11T15:55:24.846Z,64.80
2018-09-11T15:57:51.637Z,64.70
2018-09-11T16:00:18.562Z,64.70
2018-09-11T16:02:45.408Z,64.90
2018-09-11T16:05:12.241Z,64.80
2018-09-11T16:07:39.561Z,64.80
2018-09-11T16:10:06.363Z,64.90
2018-09-11T16:12:33.083Z,64.90
2018-09-11T16:14:59.989Z,64.80
2018-09-11T16:17:26.639Z,64.80
2018-09-11T16:19:53.364Z,64.80
2018-09-11T16:22:20.149Z,64.90
2018-09-11T16:24:46.978Z,64.90
2018-09-11T16:27:13.714Z,65.60
2018-09-11T16:29:40.555Z,64.90
2018-09-11T16:32:07.296Z,64.90
2018-09-11T16:34:34.113Z,64.90
2018-09-11T16:37:00.908Z,64.90
2018-09-11T16:39:27.640Z,64.90
2018-09-11T16:41:54.361Z,65.00
2018-09-11T16:44:21.094Z,65.00
2018-09-11T16:46:47.907Z,64.90
2018-09-11T16:49:14.714Z,64.90
2018-09-11T16:51:41.390Z,64.90
2018-09-11T16:54:08.174Z,65.00
2018-09-11T16:56:35.029Z,65.00
2018-09-11T16:59:01.935Z,65.00
2018-09-11T17:01:28.966Z,65.10
2018-09-11T17:03:55.870Z,65.00
2018-09-11T17:06:22.605Z,65.10
2018-09-11T17:08:49.306Z,65.10
2018-09-11T17:11:16.006Z,65.10
2018-09-11T17:13:43.638Z,65.20
2018-09-11T17:16:10.409Z,65.20
2018-09-11T17:18:37.177Z,65.20
2018-09-11T17:21:03.947Z,65.20
2018-09-11T17:23:31.394Z,65.20
2018-09-11T17:25:58.284Z,65.10
2018-09-11T17:28:24.998Z,65.00
2018-09-11T17:31:03.884Z,65.10
2018-09-11T17:33:37.437Z,65.20
2018-09-11T17:36:07.963Z,65.20
2018-09-11T17:38:34.770Z,65.20
2018-09-11T17:41:01.570Z,65.30
2018-09-11T17:43:28.334Z,65.30
2018-09-11T17:45:55.137Z,65.30
2018-09-11T17:48:22.372Z,65.30
2018-09-11T17:50:49.404Z,65.40
2018-09-11T17:53:16.295Z,65.50
2018-09-11T17:55:43.204Z,65.60
2018-09-11T17:58:09.889Z,65.60
2018-09-11T18:00:36.636Z,65.60
2018-09-11T18:03:03.413Z,65.70
2018-09-11T18:05:30.105Z,65.70
2018-09-11T18:07:57.382Z,65.90
2018-09-11T18:10:24.397Z,65.90
2018-09-11T18:12:51.169Z,66.00
2018-09-11T18:18:05.576Z,66.10
2018-09-11T18:20:32.405Z,66.10
2018-09-11T18:22:59.240Z,66.20
2018-09-11T18:25:26.609Z,66.40
2018-09-11T18:27:53.853Z,66.40
2018-09-11T18:30:20.707Z,66.40
2018-09-11T18:32:47.476Z,66.40
2018-09-11T18:35:14.271Z,66.50
2018-09-11T18:37:41.015Z,66.50
2018-09-11T18:40:08.431Z,66.70
2018-09-11T18:42:35.418Z,66.70
2018-09-11T18:45:03.009Z,66.80
2018-09-11T18:47:30.003Z,67.10
2018-09-11T18:49:57.692Z,66.90
2018-09-11T18:52:24.441Z,67.40
2018-09-11T18:54:51.110Z,67.10
2018-09-11T18:57:17.927Z,67.30
2018-09-11T18:59:44.994Z,67.30
2018-09-11T19:02:11.689Z,67.30
2018-09-11T19:04:38.981Z,67.40
2018-09-11T19:07:05.759Z,67.40
2018-09-11T19:09:32.553Z,67.60
2018-09-11T19:11:59.631Z,67.60
2018-09-11T19:14:26.460Z,67.60
2018-09-11T19:16:53.199Z,67.80
2018-09-11T19:19:20.087Z,67.80
2018-09-11T19:21:46.900Z,67.80
2018-09-11T19:24:13.855Z,67.80
2018-09-11T19:26:40.789Z,68.00
2018-09-11T19:29:07.487Z,68.00
2018-09-11T19:31:34.263Z,68.20
2018-09-11T19:34:01.053Z,68.00
2018-09-11T19:36:28.745Z,68.20
2018-09-11T19:38:56.174Z,68.30
2018-09-11T19:41:22.914Z,68.20
2018-09-11T19:43:49.562Z,68.40
2018-09-11T19:46:16.347Z,68.30
2018-09-11T19:48:43.132Z,69.40
2018-09-11T19:51:09.823Z,68.50
2018-09-11T19:53:36.506Z,68.60
2018-09-11T19:56:03.192Z,68.50
2018-09-11T19:58:29.903Z,68.60
2018-09-11T20:00:57.210Z,68.70
2018-09-11T20:03:24.558Z,68.60
2018-09-11T20:05:53.047Z,68.60
2018-09-11T20:08:19.937Z,68.70
2018-09-11T20:10:46.654Z,68.70
2018-09-11T20:13:13.507Z,68.60
2018-09-11T20:15:40.292Z,68.70
2018-09-11T20:18:06.957Z,68.60
2018-09-11T20:20:33.897Z,68.70
2018-09-11T20:23:00.611Z,68.60
2018-09-11T20:25:28.021Z,68.70
2018-09-11T20:27:54.802Z,68.70
2018-09-11T20:30:21.619Z,68.80
2018-09-11T20:32:48.591Z,68.70
2018-09-11T20:35:15.353Z,68.60
2018-09-11T20:37:42.151Z,68.60
2018-09-11T20:40:09.425Z,68.60
2018-09-11T20:42:36.158Z,68.80
2018-09-11T20:45:03.684Z,68.60
2018-09-11T20:47:30.294Z,68.70
2018-09-11T20:49:57.154Z,68.70
2018-09-11T20:52:23.892Z,68.70
2018-09-11T20:54:51.279Z,68.70
2018-09-11T20:57:18.147Z,68.70
2018-09-11T20:59:45.077Z,68.80
2018-09-11T21:02:11.859Z,68.80
2018-09-11T21:04:38.886Z,68.80
2018-09-11T21:07:06.590Z,68.80
2018-09-11T21:09:33.255Z,68.60
2018-09-11T21:11:59.980Z,68.80
2018-09-11T21:14:26.737Z,69.40
2018-09-11T21:16:53.454Z,68.90
2018-09-11T21:19:20.257Z,68.90
2018-09-11T21:21:47.012Z,68.80
2018-09-11T21:24:13.691Z,68.90
2018-09-11T21:26:40.418Z,68.80
2018-09-11T21:29:07.127Z,68.80
2018-09-11T21:31:33.888Z,68.80
2018-09-11T21:34:00.643Z,68.80
2018-09-11T21:36:27.456Z,68.90
2018-09-11T21:38:54.160Z,68.90
2018-09-11T21:41:21.062Z,68.90
2018-09-11T21:43:47.783Z,68.90
2018-09-11T21:46:14.504Z,68.90
2018-09-11T21:48:41.162Z,68.90
2018-09-11T21:51:07.818Z,69.00
2018-09-11T21:53:34.473Z,68.90
2018-09-11T21:56:01.241Z,69.00
2018-09-11T21:58:27.969Z,69.00
2018-09-11T22:01:00.146Z,69.00
2018-09-11T22:03:26.852Z,68.90
2018-09-11T22:05:53.496Z,69.10
2018-09-11T22:08:20.179Z,69.00
2018-09-11T22:10:46.901Z,69.10
2018-09-11T22:13:13.685Z,69.80
2018-09-11T22:15:40.547Z,69.10
2018-09-11T22:18:07.422Z,69.00
2018-09-11T22:20:34.101Z,69.80
2018-09-11T22:23:00.945Z,69.10
2018-09-11T22:25:27.651Z,69.10
2018-09-11T22:27:54.339Z,69.40
2018-09-11T22:30:21.111Z,69.10
2018-09-11T22:32:47.872Z,69.20
2018-09-11T22:35:14.609Z,69.30
2018-09-11T22:37:41.359Z,69.20
2018-09-11T22:40:08.051Z,69.20
2018-09-11T22:42:34.830Z,69.10
2018-09-11T22:45:01.532Z,69.20
2018-09-11T22:47:28.200Z,69.20
2018-09-11T22:49:54.924Z,69.20
2018-09-11T22:52:21.582Z,69.20
2018-09-11T22:54:48.278Z,69.30
2018-09-11T22:57:15.044Z,69.40
2018-09-11T22:59:41.864Z,69.30
2018-09-11T23:02:08.688Z,69.30
2018-09-11T23:04:35.399Z,69.30
2018-09-11T23:07:02.092Z,69.30
2018-09-11T23:09:28.800Z,69.30
2018-09-11T23:11:55.486Z,69.30
2018-09-11T23:14:22.218Z,69.40
2018-09-11T23:16:48.979Z,69.40
2018-09-11T23:19:15.682Z,69.40
2018-09-11T23:21:42.557Z,69.40
2018-09-11T23:24:09.237Z,69.40
2018-09-11T23:26:36.133Z,69.50
2018-09-11T23:29:03.121Z,69.30
2018-09-11T23:31:29.906Z,69.40
2018-09-11T23:33:56.729Z,69.50
2018-09-11T23:36:24.357Z,69.40
2018-09-11T23:38:51.845Z,69.50
2018-09-11T23:41:18.989Z,69.50
2018-09-11T23:43:46.585Z,69.50
2018-09-11T23:46:13.336Z,69.50
2018-09-11T23:48:40.164Z,69.50
2018-09-11T23:51:06.880Z,69.60
2018-09-11T23:53:33.694Z,69.60
2018-09-11T23:56:00.443Z,69.50
2018-09-11T23:58:27.116Z,69.60
